createdAt,value
2023-01-22T00:01:17.284Z,10.97
2023-01-22T00:03:46.779Z,11.53
2023-01-22T00:06:15.132Z,11.07
2023-01-22T00:08:42.853Z,12.03
2023-01-22T00:11:11.324Z,13.03
2023-01-22T00:13:39.001Z,11.70
2023-01-22T00:16:07.566Z,12.83
2023-01-22T00:18:35.269Z,12.63
2023-01-22T00:21:03.176Z,13.30
2023-01-22T00:23:30.574Z,13.23
2023-01-22T00:26:06.908Z,12.57
2023-01-22T00:28:34.209Z,13.67
2023-01-22T00:31:03.448Z,14.00
2023-01-22T00:33:31.640Z,13.67
2023-01-22T00:36:11.092Z,14.77
2023-01-22T00:38:38.637Z,14.43
2023-01-22T00:41:08.955Z,17.07
2023-01-22T00:43:39.053Z,14.37
2023-01-22T00:46:08.567Z,15.53
2023-01-22T00:48:36.608Z,15.03
2023-01-22T00:51:04.567Z,15.17
2023-01-22T00:53:31.992Z,15.03
2023-01-22T00:56:01.699Z,14.50
2023-01-22T00:58:30.504Z,15.83
2023-01-22T01:00:58.099Z,15.13
2023-01-22T01:03:28.428Z,15.47
2023-01-22T01:05:57.744Z,15.30
2023-01-22T01:08:25.719Z,15.97
2023-01-22T01:11:01.972Z,15.53
2023-01-22T01:13:31.493Z,13.30
2023-01-22T01:16:04.146Z,14.37
2023-01-22T01:18:32.912Z,13.63
2023-01-22T01:21:01.359Z,14.77
2023-01-22T01:23:29.506Z,14.63
2023-01-22T01:25:57.349Z,14.27
2023-01-22T01:28:25.163Z,14.10
2023-01-22T01:30:52.681Z,13.93
2023-01-22T01:33:21.396Z,14.00
2023-01-22T01:35:48.899Z,13.17
2023-01-22T01:38:16.278Z,14.17
2023-01-22T01:40:44.734Z,14.07
2023-01-22T01:43:16.304Z,13.10
2023-01-22T01:45:44.743Z,13.17
2023-01-22T01:48:24.538Z,13.07
2023-01-22T01:51:15.034Z,12.77
2023-01-22T01:53:46.756Z,12.63
2023-01-22T01:56:18.415Z,12.97
2023-01-22T01:58:47.252Z,12.80
2023-01-22T02:01:17.024Z,13.57
2023-01-22T02:03:46.016Z,13.50
2023-01-22T02:06:17.145Z,13.47
2023-01-22T02:08:49.045Z,13.97
2023-01-22T02:11:19.142Z,13.00
2023-01-22T02:14:18.435Z,14.07
2023-01-22T02:16:45.870Z,13.57
2023-01-22T02:19:14.262Z,13.67
2023-01-22T02:21:43.838Z,13.50
2023-01-22T02:24:14.808Z,14.37
2023-01-22T02:26:44.362Z,15.40
2023-01-22T02:29:17.491Z,14.90
2023-01-22T02:31:44.995Z,15.37
2023-01-22T02:34:13.276Z,15.80
2023-01-22T02:36:41.596Z,15.20
2023-01-22T02:39:09.561Z,15.57
2023-01-22T02:41:38.719Z,17.53
2023-01-22T02:44:07.794Z,15.30
2023-01-22T02:46:35.599Z,16.13
2023-01-22T02:49:04.072Z,16.07
2023-01-22T02:51:33.119Z,14.97
2023-01-22T02:54:00.649Z,16.30
2023-01-22T02:56:28.177Z,14.47
2023-01-22T02:58:55.809Z,15.90
2023-01-22T03:01:25.437Z,16.97
2023-01-22T03:03:59.121Z,16.27
2023-01-22T03:06:28.831Z,17.33
2023-01-22T03:09:01.036Z,17.37
2023-01-22T03:11:33.025Z,17.20
2023-01-22T03:14:24.465Z,17.40
2023-01-22T03:17:12.848Z,17.50
2023-01-22T03:19:58.809Z,17.10
2023-01-22T03:22:27.255Z,16.67
2023-01-22T03:24:55.177Z,17.03
2023-01-22T03:27:27.222Z,15.70
2023-01-22T03:29:55.506Z,17.43
2023-01-22T03:32:24.029Z,16.50
2023-01-22T03:34:51.718Z,16.07
2023-01-22T03:37:19.796Z,17.87
2023-01-22T03:39:50.842Z,17.33
2023-01-22T03:42:28.524Z,16.47
2023-01-22T03:44:56.017Z,17.03
2023-01-22T03:47:24.916Z,17.50
2023-01-22T03:49:52.684Z,16.63
2023-01-22T03:52:20.020Z,16.70
2023-01-22T03:54:47.496Z,17.27
2023-01-22T03:57:14.892Z,15.33
2023-01-22T03:59:43.515Z,18.37
2023-01-22T04:02:11.003Z,17.20
2023-01-22T04:04:51.351Z,16.07
2023-01-22T04:07:18.732Z,15.73
2023-01-22T04:09:47.387Z,17.23
2023-01-22T04:12:14.735Z,16.77
2023-01-22T04:14:43.246Z,16.07
2023-01-22T04:17:10.900Z,16.23
2023-01-22T04:19:51.044Z,18.13
2023-01-22T04:22:41.473Z,16.80
2023-01-22T04:25:11.410Z,16.30
2023-01-22T04:27:39.046Z,16.77
2023-01-22T04:30:07.703Z,17.40
2023-01-22T04:32:35.467Z,18.33
2023-01-22T04:35:17.021Z,16.17
2023-01-22T04:37:50.300Z,16.60
2023-01-22T04:40:18.333Z,16.67
2023-01-22T04:42:47.268Z,17.67
2023-01-22T04:45:15.586Z,17.37
2023-01-22T04:47:45.437Z,16.93
2023-01-22T04:50:19.080Z,17.13
2023-01-22T04:52:47.953Z,16.80
2023-01-22T04:55:15.568Z,16.60
2023-01-22T04:58:09.556Z,17.37
2023-01-22T05:00:37.779Z,15.87
2023-01-22T05:03:06.059Z,17.47
2023-01-22T05:05:34.072Z,19.33
2023-01-22T05:08:01.698Z,17.43
2023-01-22T05:10:31.616Z,17.67
2023-01-22T05:13:03.711Z,17.40
2023-01-22T05:15:31.291Z,18.17
2023-01-22T05:18:04.507Z,17.37
2023-01-22T05:20:35.401Z,20.53
2023-01-22T05:23:03.861Z,17.87
2023-01-22T05:25:32.379Z,19.47
2023-01-22T05:28:00.036Z,18.33
2023-01-22T05:30:37.116Z,19.33
2023-01-22T05:33:24.886Z,19.33
2023-01-22T05:35:57.794Z,20.00
2023-01-22T05:38:25.746Z,26.23
2023-01-22T05:40:53.933Z,18.43
2023-01-22T05:43:22.394Z,19.77
2023-01-22T05:46:03.648Z,20.63
2023-01-22T05:48:54.181Z,19.80
2023-01-22T05:51:25.822Z,21.13
2023-01-22T05:53:53.677Z,19.27
2023-01-22T05:56:21.379Z,21.77
2023-01-22T05:58:50.823Z,21.03
2023-01-22T06:01:18.979Z,20.17
2023-01-22T06:03:50.316Z,19.10
2023-01-22T06:06:20.005Z,19.10
2023-01-22T06:08:48.974Z,19.43
2023-01-22T06:11:17.860Z,20.17
2023-01-22T06:13:47.148Z,20.07
2023-01-22T06:16:19.828Z,20.77
2023-01-22T06:19:05.728Z,19.57
2023-01-22T06:21:39.516Z,19.33
2023-01-22T06:24:07.316Z,21.37
2023-01-22T06:26:34.724Z,21.03
2023-01-22T06:29:03.573Z,21.70
2023-01-22T06:31:31.598Z,21.57
2023-01-22T06:33:59.280Z,20.33
2023-01-22T06:36:27.289Z,22.17
2023-01-22T06:38:55.616Z,25.07
2023-01-22T06:41:36.060Z,21.87
2023-01-22T06:44:05.843Z,21.97
2023-01-22T06:46:33.578Z,22.87
2023-01-22T06:49:05.259Z,22.97
2023-01-22T06:51:33.001Z,24.80
2023-01-22T06:54:00.535Z,24.87
2023-01-22T06:56:28.627Z,22.90
2023-01-22T06:58:57.987Z,24.27
2023-01-22T07:01:26.135Z,20.53
2023-01-22T07:03:53.647Z,20.50
2023-01-22T07:06:21.139Z,20.07
2023-01-22T07:08:48.357Z,18.53
2023-01-22T07:11:16.251Z,20.90
2023-01-22T07:13:43.719Z,18.40
2023-01-22T07:16:11.513Z,22.60
2023-01-22T07:18:38.818Z,20.60
2023-01-22T07:21:06.706Z,21.23
2023-01-22T07:23:34.051Z,21.40
2023-01-22T07:26:01.560Z,21.03
2023-01-22T07:28:29.025Z,21.27
2023-01-22T07:30:57.208Z,19.07
2023-01-22T07:33:24.761Z,22.57
2023-01-22T07:35:59.123Z,21.00
2023-01-22T07:38:29.925Z,21.53
2023-01-22T07:41:11.446Z,19.87
2023-01-22T07:43:49.691Z,18.87
2023-01-22T07:46:17.403Z,20.80
2023-01-22T07:48:46.059Z,21.17
2023-01-22T07:51:13.387Z,20.43
2023-01-22T07:53:42.026Z,20.53
2023-01-22T07:56:09.339Z,33.10
2023-01-22T07:58:36.767Z,27.97
2023-01-22T08:01:08.139Z,25.43
2023-01-22T08:03:38.080Z,19.10
2023-01-22T08:06:11.122Z,20.20
2023-01-22T08:08:39.131Z,17.70
2023-01-22T08:11:06.799Z,19.17
2023-01-22T08:13:34.332Z,19.47
2023-01-22T08:16:01.839Z,19.20
2023-01-22T08:18:29.421Z,17.07
2023-01-22T08:21:00.910Z,16.43
2023-01-22T08:23:28.754Z,18.37
2023-01-22T08:26:04.424Z,17.33
2023-01-22T08:28:32.619Z,19.23
2023-01-22T08:31:01.954Z,17.70
2023-01-22T08:33:32.367Z,18.17
2023-01-22T08:35:59.658Z,14.40
2023-01-22T08:38:27.358Z,14.53
2023-01-22T08:40:54.772Z,13.77
2023-01-22T08:43:22.247Z,14.83
2023-01-22T08:45:49.991Z,16.60
2023-01-22T08:48:17.914Z,16.57
2023-01-22T08:50:45.802Z,17.83
2023-01-22T08:53:13.372Z,12.40
2023-01-22T08:55:40.740Z,13.60
2023-01-22T08:58:08.017Z,16.83
2023-01-22T09:00:35.947Z,15.03
2023-01-22T09:03:03.375Z,14.77
2023-01-22T09:05:30.682Z,14.30
2023-01-22T09:07:58.119Z,14.57
2023-01-22T09:10:25.728Z,18.73
2023-01-22T09:12:53.553Z,16.57
2023-01-22T09:15:21.067Z,12.17
2023-01-22T09:17:48.509Z,13.57
2023-01-22T09:20:16.732Z,13.53
2023-01-22T09:22:49.757Z,14.17
2023-01-22T09:25:17.318Z,11.10
2023-01-22T09:27:46.317Z,13.67
2023-01-22T09:30:17.511Z,11.87
2023-01-22T09:32:45.162Z,15.47
2023-01-22T09:35:12.557Z,10.93
2023-01-22T09:37:40.123Z,11.23
2023-01-22T09:40:12.636Z,11.93
2023-01-22T09:42:41.467Z,12.17
2023-01-22T09:45:12.987Z,11.43
2023-01-22T09:47:50.181Z,11.53
2023-01-22T09:50:22.853Z,12.73
2023-01-22T09:52:53.740Z,11.03
2023-01-22T09:55:27.616Z,12.10
2023-01-22T09:57:56.504Z,11.30
2023-01-22T10:00:46.577Z,11.70
2023-01-22T10:03:31.815Z,10.90
2023-01-22T10:06:16.257Z,12.57
2023-01-22T10:09:10.611Z,12.17
2023-01-22T10:11:39.160Z,13.30
2023-01-22T10:14:09.278Z,14.87
2023-01-22T10:16:37.812Z,12.67
2023-01-22T10:19:17.190Z,12.47
2023-01-22T10:21:51.448Z,11.80
2023-01-22T10:24:18.820Z,11.53
2023-01-22T10:26:54.319Z,12.80
2023-01-22T10:29:21.911Z,12.60
2023-01-22T10:31:53.716Z,12.93
2023-01-22T10:34:30.302Z,11.33
2023-01-22T10:37:18.785Z,12.20
2023-01-22T10:39:50.973Z,12.40
2023-01-22T10:42:21.631Z,11.80
2023-01-22T10:44:49.892Z,12.80
2023-01-22T10:47:20.820Z,12.13
2023-01-22T10:50:04.456Z,12.30
2023-01-22T10:52:39.902Z,11.87
2023-01-22T10:55:18.895Z,11.43
2023-01-22T10:57:52.272Z,12.63
2023-01-22T11:00:21.995Z,10.97
2023-01-22T11:02:51.335Z,11.07
2023-01-22T11:05:27.247Z,11.07
2023-01-22T11:08:05.667Z,11.33
2023-01-22T11:10:52.969Z,11.37
2023-01-22T11:13:45.695Z,9.80
2023-01-22T11:16:20.788Z,9.80
2023-01-22T11:19:13.965Z,10.20
2023-01-22T11:21:44.736Z,9.60
2023-01-22T11:24:21.705Z,10.03
2023-01-22T11:27:42.542Z,9.00
2023-01-22T11:30:47.835Z,9.83
2023-01-22T11:33:45.821Z,9.30
2023-01-22T11:36:28.466Z,8.37
2023-01-22T11:39:05.843Z,10.80
2023-01-22T11:41:36.202Z,8.87
2023-01-22T11:44:31.973Z,10.00
2023-01-22T11:47:17.338Z,8.77
2023-01-22T11:49:56.852Z,10.80
2023-01-22T11:52:24.107Z,7.90
2023-01-22T11:55:02.014Z,8.30
2023-01-22T11:57:38.966Z,8.07
2023-01-22T12:00:45.174Z,12.47
2023-01-22T12:03:27.758Z,7.87
2023-01-22T12:06:38.061Z,7.83
2023-01-22T12:09:08.181Z,9.50
2023-01-22T12:12:02.605Z,10.00
2023-01-22T12:14:42.064Z,10.43
2023-01-22T12:17:37.978Z,8.37
2023-01-22T12:20:34.307Z,9.13
2023-01-22T12:23:08.843Z,7.83
2023-01-22T12:25:38.653Z,8.63
2023-01-22T12:28:36.595Z,8.90
2023-01-22T12:31:16.905Z,8.23
2023-01-22T12:33:44.679Z,8.37
2023-01-22T12:36:16.563Z,8.27
2023-01-22T12:39:25.628Z,8.50
2023-01-22T12:41:58.001Z,9.47
2023-01-22T12:44:48.784Z,9.43
2023-01-22T12:47:40.274Z,12.90
2023-01-22T12:50:22.737Z,11.40
2023-01-22T12:53:05.796Z,10.23
2023-01-22T12:55:38.365Z,15.43
2023-01-22T12:58:21.649Z,16.37
2023-01-22T13:01:05.414Z,14.37
2023-01-22T13:03:33.582Z,13.97
2023-01-22T13:06:25.647Z,13.03
2023-01-22T13:08:53.062Z,12.13
2023-01-22T13:11:36.045Z,13.37
2023-01-22T13:14:43.052Z,11.13
2023-01-22T13:17:20.840Z,10.87
2023-01-22T13:19:50.588Z,10.83
2023-01-22T13:22:24.575Z,12.13
2023-01-22T13:24:55.967Z,11.57
2023-01-22T13:27:33.852Z,11.47
2023-01-22T13:30:17.722Z,11.40
2023-01-22T13:32:45.636Z,11.90
2023-01-22T13:35:15.495Z,12.03
2023-01-22T13:37:45.221Z,12.57
2023-01-22T13:40:46.242Z,12.07
2023-01-22T13:43:21.469Z,10.87
2023-01-22T13:45:51.345Z,12.70
2023-01-22T13:48:21.989Z,12.17
2023-01-22T13:51:06.909Z,17.70
2023-01-22T13:53:41.751Z,12.47
2023-01-22T13:56:17.172Z,12.93
2023-01-22T13:58:48.661Z,12.10
2023-01-22T14:01:34.078Z,11.07
2023-01-22T14:04:04.209Z,11.53
2023-01-22T14:06:47.356Z,11.77
2023-01-22T14:09:25.976Z,12.20
2023-01-22T14:11:53.396Z,11.80
2023-01-22T14:14:20.799Z,11.97
2023-01-22T14:16:48.131Z,11.40
2023-01-22T14:19:16.092Z,11.80
2023-01-22T14:21:43.365Z,11.57
2023-01-22T14:24:10.699Z,12.47
2023-01-22T14:26:38.041Z,11.20
2023-01-22T14:29:05.627Z,11.33
2023-01-22T14:31:33.138Z,10.93
2023-01-22T14:34:00.501Z,12.87
2023-01-22T14:36:27.836Z,10.83
2023-01-22T14:38:55.433Z,10.13
2023-01-22T14:41:23.158Z,11.13
2023-01-22T14:43:50.600Z,11.30
2023-01-22T14:46:17.964Z,11.43
2023-01-22T14:48:45.442Z,11.20
2023-01-22T14:51:13.280Z,15.97
2023-01-22T14:53:40.611Z,13.03
2023-01-22T14:56:08.256Z,12.70
2023-01-22T14:58:36.413Z,11.80
2023-01-22T15:01:15.208Z,12.97
2023-01-22T15:03:42.566Z,11.30
2023-01-22T15:06:10.249Z,14.97
2023-01-22T15:08:37.767Z,12.83
2023-01-22T15:11:07.915Z,12.47
2023-01-22T15:13:35.909Z,12.13
2023-01-22T15:16:08.471Z,12.03
2023-01-22T15:18:36.968Z,15.47
2023-01-22T15:21:05.383Z,16.07
2023-01-22T15:23:34.196Z,14.73
2023-01-22T15:26:04.675Z,15.03
2023-01-22T15:28:32.226Z,15.37
2023-01-22T15:31:10.605Z,13.03
2023-01-22T15:33:38.056Z,14.27
2023-01-22T15:36:06.048Z,13.97
2023-01-22T15:38:33.301Z,14.50
2023-01-22T15:41:18.107Z,14.03
2023-01-22T15:43:50.599Z,14.30
2023-01-22T15:46:23.200Z,15.00
2023-01-22T15:48:51.204Z,13.77
2023-01-22T15:51:19.748Z,14.33
2023-01-22T15:53:51.941Z,14.50
2023-01-22T15:56:21.468Z,15.23
2023-01-22T15:58:51.076Z,19.17
2023-01-22T16:01:19.905Z,22.63
2023-01-22T16:03:47.621Z,14.07
2023-01-22T16:06:18.431Z,14.63
2023-01-22T16:08:46.783Z,15.83
2023-01-22T16:11:15.168Z,16.80
2023-01-22T16:13:43.217Z,15.20
2023-01-22T16:16:17.217Z,14.87
2023-01-22T16:18:45.702Z,15.67
2023-01-22T16:21:14.323Z,16.20
2023-01-22T16:23:43.314Z,15.90
2023-01-22T16:26:16.775Z,16.60
2023-01-22T16:28:45.556Z,15.50
2023-01-22T16:31:17.446Z,16.37
2023-01-22T16:33:46.803Z,14.80
2023-01-22T16:36:17.196Z,14.03
2023-01-22T16:38:45.099Z,15.17
2023-01-22T16:41:25.306Z,15.20
2023-01-22T16:43:56.095Z,15.93
2023-01-22T16:46:25.864Z,15.23
2023-01-22T16:48:59.107Z,18.00
2023-01-22T16:51:28.427Z,15.40
2023-01-22T16:53:56.409Z,15.93
2023-01-22T16:56:23.672Z,16.43
2023-01-22T16:58:51.072Z,15.17
2023-01-22T17:01:18.651Z,15.93
2023-01-22T17:03:46.242Z,16.00
2023-01-22T17:06:26.532Z,16.67
2023-01-22T17:08:54.657Z,17.00
2023-01-22T17:11:22.914Z,16.10
2023-01-22T17:13:50.559Z,16.80
2023-01-22T17:16:18.900Z,16.57
2023-01-22T17:18:47.079Z,27.20
2023-01-22T17:21:17.407Z,16.67
2023-01-22T17:23:45.136Z,16.33
2023-01-22T17:26:15.472Z,15.53
2023-01-22T17:28:43.071Z,16.03
2023-01-22T17:31:15.657Z,17.27
2023-01-22T17:33:44.293Z,15.70
2023-01-22T17:36:13.836Z,16.57
2023-01-22T17:38:41.368Z,16.23
2023-01-22T17:41:11.900Z,15.80
2023-01-22T17:43:39.306Z,17.20
2023-01-22T17:46:12.499Z,16.93
2023-01-22T17:48:40.022Z,17.70
2023-01-22T17:51:10.395Z,17.17
2023-01-22T17:53:39.958Z,16.60
2023-01-22T17:56:37.786Z,15.23
2023-01-22T17:59:06.597Z,15.83
2023-01-22T18:01:36.055Z,16.77
2023-01-22T18:04:12.025Z,16.60
2023-01-22T18:06:41.148Z,15.47
2023-01-22T18:09:09.494Z,16.30
2023-01-22T18:11:38.113Z,15.87
2023-01-22T18:14:08.169Z,16.47
2023-01-22T18:16:38.167Z,15.50
2023-01-22T18:19:07.434Z,16.93
2023-01-22T18:21:37.666Z,16.17
2023-01-22T18:24:07.087Z,19.30
2023-01-22T18:26:35.366Z,23.13
2023-01-22T18:29:02.960Z,17.17
2023-01-22T18:31:30.938Z,17.73
2023-01-22T18:34:02.281Z,22.93
2023-01-22T18:36:36.178Z,20.70
2023-01-22T18:39:10.620Z,22.53
2023-01-22T18:41:39.507Z,18.23
2023-01-22T18:44:08.574Z,18.53
2023-01-22T18:46:41.221Z,17.07
2023-01-22T18:49:18.937Z,16.30
2023-01-22T18:51:46.847Z,22.67
2023-01-22T18:54:14.996Z,24.27
2023-01-22T18:56:42.721Z,20.97
2023-01-22T18:59:13.293Z,19.87
2023-01-22T19:01:41.058Z,20.93
2023-01-22T19:04:11.889Z,18.53
2023-01-22T19:06:39.369Z,22.67
2023-01-22T19:09:14.223Z,20.80
2023-01-22T19:11:43.750Z,18.30
2023-01-22T19:14:15.348Z,18.97
2023-01-22T19:16:45.037Z,16.90
2023-01-22T19:19:13.831Z,16.70
2023-01-22T19:21:46.833Z,16.90
2023-01-22T19:24:16.995Z,16.43
2023-01-22T19:26:46.655Z,16.77
2023-01-22T19:29:17.623Z,18.33
2023-01-22T19:31:48.332Z,16.77
2023-01-22T19:34:23.716Z,16.83
2023-01-22T19:36:57.669Z,17.40
2023-01-22T19:39:26.063Z,17.20
2023-01-22T19:41:54.512Z,17.40
2023-01-22T19:44:22.542Z,16.20
2023-01-22T19:46:50.061Z,16.67
2023-01-22T19:49:17.833Z,16.77
2023-01-22T19:51:45.395Z,16.20
2023-01-22T19:54:13.253Z,17.37
2023-01-22T19:56:45.545Z,17.97
2023-01-22T19:59:16.697Z,20.70
2023-01-22T20:01:45.640Z,16.70
2023-01-22T20:04:23.322Z,16.87
2023-01-22T20:06:55.147Z,18.27
2023-01-22T20:09:22.904Z,17.10
2023-01-22T20:11:55.130Z,18.67
2023-01-22T20:14:29.849Z,17.70
2023-01-22T20:16:58.740Z,17.93
2023-01-22T20:19:27.249Z,18.13
2023-01-22T20:21:55.052Z,17.83
2023-01-22T20:24:22.354Z,17.67
2023-01-22T20:26:54.446Z,18.97
2023-01-22T20:29:21.811Z,18.03
2023-01-22T20:31:52.177Z,17.80
2023-01-22T20:34:20.356Z,18.47
2023-01-22T20:36:48.245Z,20.17
2023-01-22T20:39:16.405Z,19.67
2023-01-22T20:41:45.737Z,21.63
2023-01-22T20:44:13.867Z,17.50
2023-01-22T20:46:44.658Z,21.60
2023-01-22T20:49:12.723Z,22.00
2023-01-22T20:51:40.272Z,18.33
2023-01-22T20:54:07.897Z,19.30
2023-01-22T20:56:35.505Z,29.23
2023-01-22T20:59:09.342Z,20.30
2023-01-22T21:01:36.933Z,18.27
2023-01-22T21:04:05.738Z,18.23
2023-01-22T21:06:35.274Z,19.50
2023-01-22T21:09:04.166Z,19.20
2023-01-22T21:11:32.735Z,19.83
2023-01-22T21:14:02.295Z,17.50
2023-01-22T21:16:32.512Z,21.33
2023-01-22T21:19:03.264Z,19.07
2023-01-22T21:21:32.019Z,18.57
2023-01-22T21:24:00.254Z,18.33
2023-01-22T21:26:30.056Z,19.17
2023-01-22T21:29:00.379Z,18.13
2023-01-22T21:31:29.312Z,22.70
2023-01-22T21:34:04.384Z,20.70
2023-01-22T21:36:34.346Z,21.20
2023-01-22T21:39:02.248Z,21.67
2023-01-22T21:41:29.574Z,20.30
2023-01-22T21:44:15.907Z,19.37
2023-01-22T21:46:45.051Z,20.87
2023-01-22T21:49:18.668Z,19.20
2023-01-22T21:51:50.072Z,22.57
2023-01-22T21:54:20.764Z,20.13
2023-01-22T21:56:49.433Z,19.63
2023-01-22T21:59:17.244Z,20.77
2023-01-22T22:01:45.575Z,19.70
2023-01-22T22:04:14.219Z,20.57
2023-01-22T22:06:42.242Z,21.97
2023-01-22T22:09:14.417Z,21.23
2023-01-22T22:11:42.599Z,20.03
2023-01-22T22:14:12.681Z,21.03
2023-01-22T22:16:40.145Z,20.33
2023-01-22T22:19:07.618Z,19.93
2023-01-22T22:21:35.755Z,20.43
2023-01-22T22:24:03.640Z,21.60
2023-01-22T22:26:31.148Z,20.57
2023-01-22T22:28:58.507Z,19.73
2023-01-22T22:31:26.026Z,19.83
2023-01-22T22:33:55.036Z,19.43
2023-01-22T22:36:25.112Z,20.73
2023-01-22T22:38:53.681Z,19.67
2023-01-22T22:41:23.779Z,20.23
2023-01-22T22:43:53.081Z,19.83
2023-01-22T22:46:25.684Z,20.17
2023-01-22T22:48:54.711Z,22.27
2023-01-22T22:51:27.971Z,19.73
2023-01-22T22:54:00.409Z,19.83
2023-01-22T22:56:29.264Z,20.50
2023-01-22T22:58:58.263Z,21.17
2023-01-22T23:01:26.338Z,19.53
2023-01-22T23:03:53.987Z,20.43
2023-01-22T23:06:28.400Z,20.47
2023-01-22T23:09:10.914Z,21.13
2023-01-22T23:11:38.745Z,22.40
2023-01-22T23:14:06.606Z,23.57
2023-01-22T23:16:37.704Z,20.47
2023-01-22T23:19:07.995Z,22.27
2023-01-22T23:21:37.388Z,22.50
2023-01-22T23:24:06.522Z,23.30
2023-01-22T23:26:34.200Z,23.43
2023-01-22T23:29:04.074Z,24.13
2023-01-22T23:31:33.490Z,23.40
2023-01-22T23:34:02.440Z,24.57
2023-01-22T23:36:30.691Z,21.77
2023-01-22T23:38:58.228Z,23.97
2023-01-22T23:41:25.509Z,23.20
2023-01-22T23:43:52.981Z,21.90
2023-01-22T23:46:26.667Z,22.27
2023-01-22T23:48:55.815Z,24.80
2023-01-22T23:51:23.354Z,24.70
2023-01-22T23:53:54.397Z,24.97
2023-01-22T23:56:24.539Z,25.10
2023-01-22T23:58:56.035Z,25.07
